sensor_id;sensor_type;location;lat;lon;timestamp;temperature;humidity
80495;DHT22;69819;48.798;11.770;2024-02-26T00:01:43;6.40;51.20
80495;DHT22;69819;48.798;11.770;2024-02-26T00:04:10;6.40;51.20
80495;DHT22;69819;48.798;11.770;2024-02-26T00:06:36;6.40;51.30
80495;DHT22;69819;48.798;11.770;2024-02-26T00:09:05;6.40;51.30
80495;DHT22;69819;48.798;11.770;2024-02-26T00:11:31;6.40;51.50
80495;DHT22;69819;48.798;11.770;2024-02-26T00:13:57;6.40;51.40
80495;DHT22;69819;48.798;11.770;2024-02-26T00:16:23;6.40;51.50
80495;DHT22;69819;48.798;11.770;2024-02-26T00:18:49;6.40;51.70
80495;DHT22;69819;48.798;11.770;2024-02-26T00:21:16;6.40;51.70
80495;DHT22;69819;48.798;11.770;2024-02-26T00:23:41;6.40;51.70
80495;DHT22;69819;48.798;11.770;2024-02-26T00:26:07;6.40;51.70
80495;DHT22;69819;48.798;11.770;2024-02-26T00:28:33;6.30;52.10
80495;DHT22;69819;48.798;11.770;2024-02-26T00:30:59;6.30;51.60
80495;DHT22;69819;48.798;11.770;2024-02-26T00:33:25;6.30;51.50
80495;DHT22;69819;48.798;11.770;2024-02-26T00:35:51;6.30;51.70
80495;DHT22;69819;48.798;11.770;2024-02-26T00:38:16;6.20;51.60
80495;DHT22;69819;48.798;11.770;2024-02-26T00:40:42;6.20;51.60
80495;DHT22;69819;48.798;11.770;2024-02-26T00:43:08;6.20;51.70
80495;DHT22;69819;48.798;11.770;2024-02-26T00:45:34;6.20;51.80
80495;DHT22;69819;48.798;11.770;2024-02-26T00:48:00;6.20;51.80
80495;DHT22;69819;48.798;11.770;2024-02-26T00:50:30;6.10;51.60
80495;DHT22;69819;48.798;11.770;2024-02-26T00:53:00;6.10;51.80
80495;DHT22;69819;48.798;11.770;2024-02-26T00:55:26;6.10;51.80
80495;DHT22;69819;48.798;11.770;2024-02-26T00:57:51;6.10;51.70
80495;DHT22;69819;48.798;11.770;2024-02-26T01:00:17;6.10;51.70
80495;DHT22;69819;48.798;11.770;2024-02-26T01:02:44;6.00;51.80
80495;DHT22;69819;48.798;11.770;2024-02-26T01:05:12;6.00;52.50
80495;DHT22;69819;48.798;11.770;2024-02-26T01:07:39;6.00;52.00
80495;DHT22;69819;48.798;11.770;2024-02-26T01:10:06;6.00;52.00
80495;DHT22;69819;48.798;11.770;2024-02-26T01:12:33;6.00;52.00
80495;DHT22;69819;48.798;11.770;2024-02-26T01:15:00;5.90;51.90
80495;DHT22;69819;48.798;11.770;2024-02-26T01:17:29;5.90;52.00
80495;DHT22;69819;48.798;11.770;2024-02-26T01:19:55;5.90;51.90
80495;DHT22;69819;48.798;11.770;2024-02-26T01:22:21;5.90;51.90
80495;DHT22;69819;48.798;11.770;2024-02-26T01:24:47;5.90;52.00
80495;DHT22;69819;48.798;11.770;2024-02-26T01:27:13;5.80;51.90
80495;DHT22;69819;48.798;11.770;2024-02-26T01:29:42;5.90;52.00
80495;DHT22;69819;48.798;11.770;2024-02-26T01:32:08;5.90;51.90
80495;DHT22;69819;48.798;11.770;2024-02-26T01:34:34;5.80;51.90
80495;DHT22;69819;48.798;11.770;2024-02-26T01:37:02;5.90;51.90
80495;DHT22;69819;48.798;11.770;2024-02-26T01:39:28;5.80;51.90
80495;DHT22;69819;48.798;11.770;2024-02-26T01:41:55;5.80;51.90
80495;DHT22;69819;48.798;11.770;2024-02-26T01:44:21;5.80;52.00
80495;DHT22;69819;48.798;11.770;2024-02-26T01:46:48;5.80;52.00
80495;DHT22;69819;48.798;11.770;2024-02-26T01:49:15;5.80;52.00
80495;DHT22;69819;48.798;11.770;2024-02-26T01:51:42;5.80;52.10
80495;DHT22;69819;48.798;11.770;2024-02-26T01:54:09;5.80;52.00
80495;DHT22;69819;48.798;11.770;2024-02-26T01:56:36;5.80;52.10
80495;DHT22;69819;48.798;11.770;2024-02-26T01:59:05;5.80;52.10
80495;DHT22;69819;48.798;11.770;2024-02-26T02:01:34;5.80;52.10
80495;DHT22;69819;48.798;11.770;2024-02-26T02:04:00;5.80;52.10
80495;DHT22;69819;48.798;11.770;2024-02-26T02:06:27;5.80;51.90
80495;DHT22;69819;48.798;11.770;2024-02-26T02:08:55;5.70;52.10
80495;DHT22;69819;48.798;11.770;2024-02-26T02:11:22;5.70;52.10
80495;DHT22;69819;48.798;11.770;2024-02-26T02:13:47;5.80;52.30
80495;DHT22;69819;48.798;11.770;2024-02-26T02:16:13;5.70;52.30
80495;DHT22;69819;48.798;11.770;2024-02-26T02:18:39;5.70;52.30
80495;DHT22;69819;48.798;11.770;2024-02-26T02:21:05;5.80;52.40
80495;DHT22;69819;48.798;11.770;2024-02-26T02:23:31;5.70;52.50
80495;DHT22;69819;48.798;11.770;2024-02-26T02:25:58;5.70;52.50
80495;DHT22;69819;48.798;11.770;2024-02-26T02:28:25;5.70;52.60
80495;DHT22;69819;48.798;11.770;2024-02-26T02:30:53;5.80;52.60
80495;DHT22;69819;48.798;11.770;2024-02-26T02:33:19;5.80;52.60
80495;DHT22;69819;48.798;11.770;2024-02-26T02:35:46;5.80;52.50
80495;DHT22;69819;48.798;11.770;2024-02-26T02:38:11;5.80;52.50
80495;DHT22;69819;48.798;11.770;2024-02-26T02:40:37;5.80;52.60
80495;DHT22;69819;48.798;11.770;2024-02-26T02:43:03;5.80;52.60
80495;DHT22;69819;48.798;11.770;2024-02-26T02:45:30;5.80;52.60
80495;DHT22;69819;48.798;11.770;2024-02-26T02:47:56;5.80;52.60
80495;DHT22;69819;48.798;11.770;2024-02-26T02:50:21;5.80;52.60
80495;DHT22;69819;48.798;11.770;2024-02-26T02:52:47;5.80;52.80
80495;DHT22;69819;48.798;11.770;2024-02-26T02:55:15;5.90;52.80
80495;DHT22;69819;48.798;11.770;2024-02-26T02:57:41;5.90;52.80
80495;DHT22;69819;48.798;11.770;2024-02-26T03:00:11;5.90;52.70
80495;DHT22;69819;48.798;11.770;2024-02-26T03:02:37;5.90;52.90
80495;DHT22;69819;48.798;11.770;2024-02-26T03:05:06;5.90;52.80
80495;DHT22;69819;48.798;11.770;2024-02-26T03:07:32;5.90;52.80
80495;DHT22;69819;48.798;11.770;2024-02-26T03:09:58;5.90;52.60
80495;DHT22;69819;48.798;11.770;2024-02-26T03:12:24;5.90;52.50
80495;DHT22;69819;48.798;11.770;2024-02-26T03:14:49;5.90;52.40
80495;DHT22;69819;48.798;11.770;2024-02-26T03:17:15;5.90;52.50
80495;DHT22;69819;48.798;11.770;2024-02-26T03:19:41;5.90;52.50
80495;DHT22;69819;48.798;11.770;2024-02-26T03:22:07;5.90;52.50
80495;DHT22;69819;48.798;11.770;2024-02-26T03:24:33;5.90;52.50
80495;DHT22;69819;48.798;11.770;2024-02-26T03:26:58;5.90;52.50
80495;DHT22;69819;48.798;11.770;2024-02-26T03:29:24;5.90;52.60
80495;DHT22;69819;48.798;11.770;2024-02-26T03:31:50;5.90;53.10
80495;DHT22;69819;48.798;11.770;2024-02-26T03:34:16;5.90;52.60
80495;DHT22;69819;48.798;11.770;2024-02-26T03:36:42;5.90;52.60
80495;DHT22;69819;48.798;11.770;2024-02-26T03:39:08;5.90;52.60
80495;DHT22;69819;48.798;11.770;2024-02-26T03:41:34;5.90;52.80
80495;DHT22;69819;48.798;11.770;2024-02-26T03:44:01;5.90;52.80
80495;DHT22;69819;48.798;11.770;2024-02-26T03:46:27;5.90;52.90
80495;DHT22;69819;48.798;11.770;2024-02-26T03:48:53;5.90;52.90
80495;DHT22;69819;48.798;11.770;2024-02-26T03:51:19;5.90;52.90
80495;DHT22;69819;48.798;11.770;2024-02-26T03:53:45;5.90;52.90
80495;DHT22;69819;48.798;11.770;2024-02-26T03:56:14;5.90;52.90
80495;DHT22;69819;48.798;11.770;2024-02-26T03:58:39;5.90;53.10
80495;DHT22;69819;48.798;11.770;2024-02-26T04:01:08;5.90;53.10
80495;DHT22;69819;48.798;11.770;2024-02-26T04:03:35;5.90;53.10
80495;DHT22;69819;48.798;11.770;2024-02-26T04:06:01;5.90;53.20
80495;DHT22;69819;48.798;11.770;2024-02-26T04:08:28;5.90;53.30
80495;DHT22;69819;48.798;11.770;2024-02-26T04:10:53;5.90;53.20
80495;DHT22;69819;48.798;11.770;2024-02-26T04:13:19;5.90;53.30
80495;DHT22;69819;48.798;11.770;2024-02-26T04:15:45;5.90;53.30
80495;DHT22;69819;48.798;11.770;2024-02-26T04:18:12;6.00;53.40
80495;DHT22;69819;48.798;11.770;2024-02-26T04:20:39;6.00;53.40
80495;DHT22;69819;48.798;11.770;2024-02-26T04:23:07;6.00;54.20
80495;DHT22;69819;48.798;11.770;2024-02-26T04:25:33;6.10;53.60
80495;DHT22;69819;48.798;11.770;2024-02-26T04:27:59;6.10;53.60
80495;DHT22;69819;48.798;11.770;2024-02-26T04:30:26;6.20;53.70
80495;DHT22;69819;48.798;11.770;2024-02-26T04:32:52;6.20;53.80
80495;DHT22;69819;48.798;11.770;2024-02-26T04:35:17;6.30;53.80
80495;DHT22;69819;48.798;11.770;2024-02-26T04:37:43;6.40;53.90
80495;DHT22;69819;48.798;11.770;2024-02-26T04:40:09;6.40;53.80
80495;DHT22;69819;48.798;11.770;2024-02-26T04:42:35;6.40;53.80
80495;DHT22;69819;48.798;11.770;2024-02-26T04:45:01;6.50;53.90
80495;DHT22;69819;48.798;11.770;2024-02-26T04:47:26;6.50;53.90
80495;DHT22;69819;48.798;11.770;2024-02-26T04:49:52;6.60;54.10
80495;DHT22;69819;48.798;11.770;2024-02-26T04:52:18;6.60;54.10
80495;DHT22;69819;48.798;11.770;2024-02-26T04:54:44;6.70;54.20
80495;DHT22;69819;48.798;11.770;2024-02-26T04:57:10;6.70;54.30
80495;DHT22;69819;48.798;11.770;2024-02-26T04:59:36;6.70;54.20
80495;DHT22;69819;48.798;11.770;2024-02-26T05:02:02;6.80;54.20
80495;DHT22;69819;48.798;11.770;2024-02-26T05:04:28;6.80;54.20
80495;DHT22;69819;48.798;11.770;2024-02-26T05:06:54;6.80;54.20
80495;DHT22;69819;48.798;11.770;2024-02-26T05:09:20;6.90;54.30
80495;DHT22;69819;48.798;11.770;2024-02-26T05:11:46;6.90;54.20
80495;DHT22;69819;48.798;11.770;2024-02-26T05:14:12;6.90;54.20
80495;DHT22;69819;48.798;11.770;2024-02-26T05:16:37;7.00;54.30
80495;DHT22;69819;48.798;11.770;2024-02-26T05:19:03;7.00;54.30
80495;DHT22;69819;48.798;11.770;2024-02-26T05:21:29;7.00;54.20
80495;DHT22;69819;48.798;11.770;2024-02-26T05:23:55;7.00;54.20
80495;DHT22;69819;48.798;11.770;2024-02-26T05:26:24;7.10;54.30
80495;DHT22;69819;48.798;11.770;2024-02-26T05:28:50;7.10;54.30
80495;DHT22;69819;48.798;11.770;2024-02-26T05:31:16;7.10;54.10
80495;DHT22;69819;48.798;11.770;2024-02-26T05:33:42;7.10;54.00
80495;DHT22;69819;48.798;11.770;2024-02-26T05:36:08;7.10;54.00
80495;DHT22;69819;48.798;11.770;2024-02-26T05:38:34;7.20;54.00
80495;DHT22;69819;48.798;11.770;2024-02-26T05:41:00;7.10;53.90
80495;DHT22;69819;48.798;11.770;2024-02-26T05:43:26;7.10;53.90
80495;DHT22;69819;48.798;11.770;2024-02-26T05:45:52;7.10;53.90
80495;DHT22;69819;48.798;11.770;2024-02-26T05:48:19;7.10;53.80
80495;DHT22;69819;48.798;11.770;2024-02-26T05:50:46;7.10;53.70
80495;DHT22;69819;48.798;11.770;2024-02-26T05:53:12;7.00;53.60
80495;DHT22;69819;48.798;11.770;2024-02-26T05:55:38;7.00;53.50
80495;DHT22;69819;48.798;11.770;2024-02-26T05:58:04;6.90;53.30
80495;DHT22;69819;48.798;11.770;2024-02-26T06:00:30;6.90;53.30
80495;DHT22;69819;48.798;11.770;2024-02-26T06:02:56;6.80;53.40
80495;DHT22;69819;48.798;11.770;2024-02-26T06:05:22;6.80;53.50
80495;DHT22;69819;48.798;11.770;2024-02-26T06:07:48;6.70;53.50
80495;DHT22;69819;48.798;11.770;2024-02-26T06:10:13;6.70;53.70
80495;DHT22;69819;48.798;11.770;2024-02-26T06:12:39;6.60;53.80
80495;DHT22;69819;48.798;11.770;2024-02-26T06:15:06;6.60;53.80
80495;DHT22;69819;48.798;11.770;2024-02-26T06:17:32;6.60;54.00
80495;DHT22;69819;48.798;11.770;2024-02-26T06:19:59;6.60;54.20
80495;DHT22;69819;48.798;11.770;2024-02-26T06:22:25;6.70;55.50
80495;DHT22;69819;48.798;11.770;2024-02-26T06:24:51;6.80;55.70
80495;DHT22;69819;48.798;11.770;2024-02-26T06:27:17;7.00;56.30
80495;DHT22;69819;48.798;11.770;2024-02-26T06:29:43;7.20;56.40
80495;DHT22;69819;48.798;11.770;2024-02-26T06:32:09;7.40;56.10
80495;DHT22;69819;48.798;11.770;2024-02-26T06:34:35;7.60;55.90
80495;DHT22;69819;48.798;11.770;2024-02-26T06:37:01;7.70;55.80
80495;DHT22;69819;48.798;11.770;2024-02-26T06:39:27;7.90;55.80
80495;DHT22;69819;48.798;11.770;2024-02-26T06:41:53;8.20;56.20
80495;DHT22;69819;48.798;11.770;2024-02-26T06:44:25;8.40;56.40
80495;DHT22;69819;48.798;11.770;2024-02-26T06:46:52;8.80;56.80
80495;DHT22;69819;48.798;11.770;2024-02-26T06:49:17;9.20;56.80
80495;DHT22;69819;48.798;11.770;2024-02-26T06:51:43;9.70;56.70
80495;DHT22;69819;48.798;11.770;2024-02-26T06:54:09;10.00;55.40
80495;DHT22;69819;48.798;11.770;2024-02-26T06:56:35;10.40;54.70
80495;DHT22;69819;48.798;11.770;2024-02-26T06:59:01;10.70;54.00
80495;DHT22;69819;48.798;11.770;2024-02-26T07:01:26;10.80;53.30
80495;DHT22;69819;48.798;11.770;2024-02-26T07:03:52;10.90;52.60
80495;DHT22;69819;48.798;11.770;2024-02-26T07:06:18;10.90;52.10
80495;DHT22;69819;48.798;11.770;2024-02-26T07:08:44;10.90;51.90
80495;DHT22;69819;48.798;11.770;2024-02-26T07:11:10;11.00;52.00
80495;DHT22;69819;48.798;11.770;2024-02-26T07:13:36;10.90;51.90
80495;DHT22;69819;48.798;11.770;2024-02-26T07:16:03;10.90;51.90
80495;DHT22;69819;48.798;11.770;2024-02-26T07:18:29;10.80;51.90
80495;DHT22;69819;48.798;11.770;2024-02-26T07:20:55;10.80;51.90
80495;DHT22;69819;48.798;11.770;2024-02-26T07:23:21;10.80;51.80
80495;DHT22;69819;48.798;11.770;2024-02-26T07:25:47;10.80;51.80
80495;DHT22;69819;48.798;11.770;2024-02-26T07:28:14;10.80;51.70
80495;DHT22;69819;48.798;11.770;2024-02-26T07:30:40;10.80;51.80
80495;DHT22;69819;48.798;11.770;2024-02-26T07:33:06;10.80;52.30
80495;DHT22;69819;48.798;11.770;2024-02-26T07:35:33;10.80;51.90
80495;DHT22;69819;48.798;11.770;2024-02-26T07:37:59;10.80;52.00
80495;DHT22;69819;48.798;11.770;2024-02-26T07:40:25;10.80;52.10
80495;DHT22;69819;48.798;11.770;2024-02-26T07:42:51;10.90;52.20
80495;DHT22;69819;48.798;11.770;2024-02-26T07:45:16;11.00;52.20
80495;DHT22;69819;48.798;11.770;2024-02-26T07:47:45;11.00;52.20
80495;DHT22;69819;48.798;11.770;2024-02-26T07:50:12;11.10;52.30
80495;DHT22;69819;48.798;11.770;2024-02-26T07:52:38;11.20;52.40
80495;DHT22;69819;48.798;11.770;2024-02-26T07:55:05;11.40;52.80
80495;DHT22;69819;48.798;11.770;2024-02-26T07:57:32;11.60;53.30
80495;DHT22;69819;48.798;11.770;2024-02-26T08:00:04;11.90;53.50
80495;DHT22;69819;48.798;11.770;2024-02-26T08:02:35;12.20;53.20
80495;DHT22;69819;48.798;11.770;2024-02-26T08:05:01;12.50;53.10
80495;DHT22;69819;48.798;11.770;2024-02-26T08:07:27;12.70;52.60
80495;DHT22;69819;48.798;11.770;2024-02-26T08:09:54;13.00;52.30
80495;DHT22;69819;48.798;11.770;2024-02-26T08:12:20;13.10;52.00
80495;DHT22;69819;48.798;11.770;2024-02-26T08:14:46;13.20;51.70
80495;DHT22;69819;48.798;11.770;2024-02-26T08:17:11;13.30;51.50
80495;DHT22;69819;48.798;11.770;2024-02-26T08:19:37;13.40;51.50
80495;DHT22;69819;48.798;11.770;2024-02-26T08:22:03;13.60;51.50
80495;DHT22;69819;48.798;11.770;2024-02-26T08:24:29;13.70;51.50
80495;DHT22;69819;48.798;11.770;2024-02-26T08:26:55;13.80;51.60
80495;DHT22;69819;48.798;11.770;2024-02-26T08:29:21;13.90;51.40
80495;DHT22;69819;48.798;11.770;2024-02-26T08:31:46;14.00;51.40
80495;DHT22;69819;48.798;11.770;2024-02-26T08:34:13;14.20;51.70
80495;DHT22;69819;48.798;11.770;2024-02-26T08:36:39;14.40;51.60
80495;DHT22;69819;48.798;11.770;2024-02-26T08:39:05;14.60;51.60
80495;DHT22;69819;48.798;11.770;2024-02-26T08:41:30;14.70;51.90
80495;DHT22;69819;48.798;11.770;2024-02-26T08:43:56;14.90;51.20
80495;DHT22;69819;48.798;11.770;2024-02-26T08:46:23;15.00;50.90
80495;DHT22;69819;48.798;11.770;2024-02-26T08:48:49;15.20;51.10
80495;DHT22;69819;48.798;11.770;2024-02-26T08:51:15;15.30;51.10
80495;DHT22;69819;48.798;11.770;2024-02-26T08:53:40;15.50;50.90
80495;DHT22;69819;48.798;11.770;2024-02-26T08:56:06;15.60;50.30
80495;DHT22;69819;48.798;11.770;2024-02-26T08:58:32;15.70;50.10
80495;DHT22;69819;48.798;11.770;2024-02-26T09:00:58;15.80;49.70
80495;DHT22;69819;48.798;11.770;2024-02-26T09:03:23;15.70;49.40
80495;DHT22;69819;48.798;11.770;2024-02-26T09:05:49;15.70;49.20
80495;DHT22;69819;48.798;11.770;2024-02-26T09:08:15;15.60;49.00
80495;DHT22;69819;48.798;11.770;2024-02-26T09:10:42;15.50;48.70
80495;DHT22;69819;48.798;11.770;2024-02-26T09:13:08;15.40;48.40
80495;DHT22;69819;48.798;11.770;2024-02-26T09:15:33;15.20;48.20
80495;DHT22;69819;48.798;11.770;2024-02-26T09:17:59;15.10;48.20
80495;DHT22;69819;48.798;11.770;2024-02-26T09:20:25;14.90;48.20
80495;DHT22;69819;48.798;11.770;2024-02-26T09:22:51;14.80;48.30
80495;DHT22;69819;48.798;11.770;2024-02-26T09:25:17;14.60;48.40
80495;DHT22;69819;48.798;11.770;2024-02-26T09:27:43;14.50;48.60
80495;DHT22;69819;48.798;11.770;2024-02-26T09:30:11;14.40;48.60
80495;DHT22;69819;48.798;11.770;2024-02-26T09:32:38;14.40;48.80
80495;DHT22;69819;48.798;11.770;2024-02-26T09:35:05;14.30;49.00
80495;DHT22;69819;48.798;11.770;2024-02-26T09:37:32;14.30;49.00
80495;DHT22;69819;48.798;11.770;2024-02-26T09:39:59;14.20;49.00
80495;DHT22;69819;48.798;11.770;2024-02-26T09:42:26;14.20;49.10
80495;DHT22;69819;48.798;11.770;2024-02-26T09:44:56;14.20;48.90
80495;DHT22;69819;48.798;11.770;2024-02-26T09:47:28;14.20;48.70
80495;DHT22;69819;48.798;11.770;2024-02-26T09:49:59;14.20;48.70
80495;DHT22;69819;48.798;11.770;2024-02-26T09:52:28;14.30;48.70
80495;DHT22;69819;48.798;11.770;2024-02-26T09:54:59;14.30;48.70
80495;DHT22;69819;48.798;11.770;2024-02-26T09:57:25;14.20;48.60
80495;DHT22;69819;48.798;11.770;2024-02-26T09:59:53;14.30;48.90
80495;DHT22;69819;48.798;11.770;2024-02-26T10:02:21;14.40;49.10
80495;DHT22;69819;48.798;11.770;2024-02-26T10:04:48;14.50;49.40
80495;DHT22;69819;48.798;11.770;2024-02-26T10:07:16;14.60;49.40
80495;DHT22;69819;48.798;11.770;2024-02-26T10:09:42;14.80;49.60
80495;DHT22;69819;48.798;11.770;2024-02-26T10:12:10;14.90;49.50
80495;DHT22;69819;48.798;11.770;2024-02-26T10:14:41;15.10;49.40
80495;DHT22;69819;48.798;11.770;2024-02-26T10:17:07;15.30;49.40
80495;DHT22;69819;48.798;11.770;2024-02-26T10:19:34;15.50;49.20
80495;DHT22;69819;48.798;11.770;2024-02-26T10:22:00;15.70;49.00
80495;DHT22;69819;48.798;11.770;2024-02-26T10:24:28;15.80;48.60
80495;DHT22;69819;48.798;11.770;2024-02-26T10:26:55;16.00;48.60
80495;DHT22;69819;48.798;11.770;2024-02-26T10:29:23;16.10;48.70
80495;DHT22;69819;48.798;11.770;2024-02-26T10:31:51;16.30;48.70
80495;DHT22;69819;48.798;11.770;2024-02-26T10:34:18;16.40;48.40
80495;DHT22;69819;48.798;11.770;2024-02-26T10:36:44;16.60;48.70
80495;DHT22;69819;48.798;11.770;2024-02-26T10:39:13;16.70;48.70
80495;DHT22;69819;48.798;11.770;2024-02-26T10:41:44;16.90;48.30
80495;DHT22;69819;48.798;11.770;2024-02-26T10:44:13;17.00;48.20
80495;DHT22;69819;48.798;11.770;2024-02-26T10:46:41;17.10;48.10
80495;DHT22;69819;48.798;11.770;2024-02-26T10:49:14;17.20;47.70
80495;DHT22;69819;48.798;11.770;2024-02-26T10:51:44;17.20;47.40
80495;DHT22;69819;48.798;11.770;2024-02-26T10:54:15;17.30;47.70
80495;DHT22;69819;48.798;11.770;2024-02-26T10:56:42;17.30;47.40
80495;DHT22;69819;48.798;11.770;2024-02-26T10:59:12;17.30;47.90
80495;DHT22;69819;48.798;11.770;2024-02-26T11:01:39;17.30;47.00
80495;DHT22;69819;48.798;11.770;2024-02-26T11:04:06;17.30;47.10
80495;DHT22;69819;48.798;11.770;2024-02-26T11:06:35;17.30;47.00
80495;DHT22;69819;48.798;11.770;2024-02-26T11:09:02;17.20;46.70
80495;DHT22;69819;48.798;11.770;2024-02-26T11:11:32;17.20;46.90
80495;DHT22;69819;48.798;11.770;2024-02-26T11:14:01;17.10;46.80
80495;DHT22;69819;48.798;11.770;2024-02-26T11:16:29;17.10;46.90
80495;DHT22;69819;48.798;11.770;2024-02-26T11:18:55;17.00;46.90
80495;DHT22;69819;48.798;11.770;2024-02-26T11:21:23;17.00;46.80
80495;DHT22;69819;48.798;11.770;2024-02-26T11:23:55;17.00;46.80
80495;DHT22;69819;48.798;11.770;2024-02-26T11:26:22;16.90;46.70
80495;DHT22;69819;48.798;11.770;2024-02-26T11:28:50;16.90;46.60
80495;DHT22;69819;48.798;11.770;2024-02-26T11:31:17;16.80;46.70
80495;DHT22;69819;48.798;11.770;2024-02-26T11:33:51;16.70;46.70
80495;DHT22;69819;48.798;11.770;2024-02-26T11:36:18;16.70;46.80
80495;DHT22;69819;48.798;11.770;2024-02-26T11:38:46;16.70;47.00
80495;DHT22;69819;48.798;11.770;2024-02-26T11:41:18;16.60;46.90
80495;DHT22;69819;48.798;11.770;2024-02-26T11:44:01;16.60;46.90
80495;DHT22;69819;48.798;11.770;2024-02-26T11:46:30;16.60;46.80
80495;DHT22;69819;48.798;11.770;2024-02-26T11:49:47;16.60;47.50
80495;DHT22;69819;48.798;11.770;2024-02-26T11:51:52;16.60;47.50
80495;DHT22;69819;48.798;11.770;2024-02-26T11:57:39;16.70;47.00
80495;DHT22;69819;48.798;11.770;2024-02-26T12:00:16;16.80;46.90
80495;DHT22;69819;48.798;11.770;2024-02-26T12:02:50;16.80;46.60
80495;DHT22;69819;48.798;11.770;2024-02-26T12:05:23;16.90;47.00
80495;DHT22;69819;48.798;11.770;2024-02-26T12:07:53;16.90;47.00
80495;DHT22;69819;48.798;11.770;2024-02-26T12:13:03;16.90;46.70
80495;DHT22;69819;48.798;11.770;2024-02-26T12:15:40;16.90;46.70
80495;DHT22;69819;48.798;11.770;2024-02-26T12:18:09;16.90;46.40
80495;DHT22;69819;48.798;11.770;2024-02-26T12:20:37;16.90;46.70
80495;DHT22;69819;48.798;11.770;2024-02-26T12:23:03;16.90;46.70
80495;DHT22;69819;48.798;11.770;2024-02-26T12:25:30;17.00;46.90
80495;DHT22;69819;48.798;11.770;2024-02-26T12:27:58;17.00;46.70
80495;DHT22;69819;48.798;11.770;2024-02-26T12:30:25;17.10;46.80
80495;DHT22;69819;48.798;11.770;2024-02-26T12:32:53;17.20;47.00
80495;DHT22;69819;48.798;11.770;2024-02-26T12:35:26;17.30;47.20
80495;DHT22;69819;48.798;11.770;2024-02-26T12:37:54;17.40;47.60
80495;DHT22;69819;48.798;11.770;2024-02-26T12:40:20;17.50;46.60
80495;DHT22;69819;48.798;11.770;2024-02-26T12:42:47;17.50;46.20
80495;DHT22;69819;48.798;11.770;2024-02-26T12:45:13;17.50;46.00
80495;DHT22;69819;48.798;11.770;2024-02-26T12:47:44;17.50;46.40
80495;DHT22;69819;48.798;11.770;2024-02-26T12:50:17;17.50;45.50
80495;DHT22;69819;48.798;11.770;2024-02-26T12:52:45;17.50;46.20
80495;DHT22;69819;48.798;11.770;2024-02-26T12:55:17;17.40;45.70
80495;DHT22;69819;48.798;11.770;2024-02-26T12:57:45;17.30;45.40
80495;DHT22;69819;48.798;11.770;2024-02-26T13:00:17;17.30;45.70
80495;DHT22;69819;48.798;11.770;2024-02-26T13:02:48;17.30;45.70
80495;DHT22;69819;48.798;11.770;2024-02-26T13:05:16;17.30;45.80
80495;DHT22;69819;48.798;11.770;2024-02-26T13:07:45;17.30;45.70
80495;DHT22;69819;48.798;11.770;2024-02-26T13:10:15;17.20;45.50
80495;DHT22;69819;48.798;11.770;2024-02-26T13:12:44;17.20;45.40
80495;DHT22;69819;48.798;11.770;2024-02-26T13:15:16;17.10;45.20
80495;DHT22;69819;48.798;11.770;2024-02-26T13:17:45;17.10;45.20
80495;DHT22;69819;48.798;11.770;2024-02-26T13:20:11;17.00;45.20
80495;DHT22;69819;48.798;11.770;2024-02-26T13:22:38;16.90;45.20
80495;DHT22;69819;48.798;11.770;2024-02-26T13:25:05;16.90;45.20
80495;DHT22;69819;48.798;11.770;2024-02-26T13:27:34;16.80;45.20
80495;DHT22;69819;48.798;11.770;2024-02-26T13:30:10;16.80;45.10
80495;DHT22;69819;48.798;11.770;2024-02-26T13:32:38;16.70;44.90
80495;DHT22;69819;48.798;11.770;2024-02-26T13:35:10;16.70;45.10
80495;DHT22;69819;48.798;11.770;2024-02-26T13:37:38;16.70;45.10
80495;DHT22;69819;48.798;11.770;2024-02-26T13:40:11;16.60;45.10
80495;DHT22;69819;48.798;11.770;2024-02-26T13:42:38;16.60;45.20
80495;DHT22;69819;48.798;11.770;2024-02-26T13:45:05;16.50;45.20
80495;DHT22;69819;48.798;11.770;2024-02-26T13:47:34;16.50;45.20
80495;DHT22;69819;48.798;11.770;2024-02-26T13:50:01;16.40;45.10
80495;DHT22;69819;48.798;11.770;2024-02-26T13:52:27;16.40;45.30
80495;DHT22;69819;48.798;11.770;2024-02-26T13:54:53;16.30;45.20
80495;DHT22;69819;48.798;11.770;2024-02-26T13:57:19;16.30;45.30
80495;DHT22;69819;48.798;11.770;2024-02-26T13:59:45;16.30;45.50
80495;DHT22;69819;48.798;11.770;2024-02-26T14:02:11;16.30;45.60
80495;DHT22;69819;48.798;11.770;2024-02-26T14:04:37;16.40;45.70
80495;DHT22;69819;48.798;11.770;2024-02-26T14:07:04;16.40;45.70
80495;DHT22;69819;48.798;11.770;2024-02-26T14:09:30;16.40;46.20
80495;DHT22;69819;48.798;11.770;2024-02-26T14:11:58;16.50;45.60
80495;DHT22;69819;48.798;11.770;2024-02-26T14:14:24;16.60;45.70
80495;DHT22;69819;48.798;11.770;2024-02-26T14:16:51;16.60;45.80
80495;DHT22;69819;48.798;11.770;2024-02-26T14:19:17;16.70;46.50
80495;DHT22;69819;48.798;11.770;2024-02-26T14:21:43;16.80;45.90
80495;DHT22;69819;48.798;11.770;2024-02-26T14:24:09;16.90;45.70
80495;DHT22;69819;48.798;11.770;2024-02-26T14:26:35;16.90;45.70
80495;DHT22;69819;48.798;11.770;2024-02-26T14:29:00;16.90;45.60
80495;DHT22;69819;48.798;11.770;2024-02-26T14:31:26;17.00;45.40
80495;DHT22;69819;48.798;11.770;2024-02-26T14:33:52;16.90;45.30
80495;DHT22;69819;48.798;11.770;2024-02-26T14:36:21;16.90;45.30
80495;DHT22;69819;48.798;11.770;2024-02-26T14:38:48;16.90;45.40
80495;DHT22;69819;48.798;11.770;2024-02-26T14:41:14;16.90;45.40
80495;DHT22;69819;48.798;11.770;2024-02-26T14:43:40;16.90;45.30
80495;DHT22;69819;48.798;11.770;2024-02-26T14:46:06;16.80;45.20
80495;DHT22;69819;48.798;11.770;2024-02-26T14:48:32;16.80;45.20
80495;DHT22;69819;48.798;11.770;2024-02-26T14:50:58;16.80;45.10
80495;DHT22;69819;48.798;11.770;2024-02-26T14:53:25;16.70;44.90
80495;DHT22;69819;48.798;11.770;2024-02-26T14:55:52;16.70;44.90
80495;DHT22;69819;48.798;11.770;2024-02-26T14:58:17;16.60;44.80
80495;DHT22;69819;48.798;11.770;2024-02-26T15:00:43;16.50;44.70
80495;DHT22;69819;48.798;11.770;2024-02-26T15:03:09;16.40;44.60
80495;DHT22;69819;48.798;11.770;2024-02-26T15:05:37;16.30;44.50
80495;DHT22;69819;48.798;11.770;2024-02-26T15:08:02;16.30;44.50
80495;DHT22;69819;48.798;11.770;2024-02-26T15:10:28;16.20;44.40
80495;DHT22;69819;48.798;11.770;2024-02-26T15:12:54;16.10;44.60
80495;DHT22;69819;48.798;11.770;2024-02-26T15:15:22;16.10;44.80
80495;DHT22;69819;48.798;11.770;2024-02-26T15:17:48;16.00;44.70
80495;DHT22;69819;48.798;11.770;2024-02-26T15:20:17;16.00;44.90
80495;DHT22;69819;48.798;11.770;2024-02-26T15:22:43;16.00;45.00
80495;DHT22;69819;48.798;11.770;2024-02-26T15:25:09;16.00;45.10
80495;DHT22;69819;48.798;11.770;2024-02-26T15:27:35;16.00;45.20